createdAt,value
2022-11-08T00:00:24.101Z,99653.63
2022-11-08T00:02:26.941Z,99659.84
2022-11-08T00:04:30.100Z,99647.97
2022-11-08T00:06:51.753Z,99655.28
2022-11-08T00:09:12.892Z,99649.78
2022-11-08T00:11:34.128Z,99658.53
2022-11-08T00:13:55.220Z,99657.69
2022-11-08T00:16:01.003Z,99668.03
2022-11-08T00:18:04.007Z,99660.41
2022-11-08T00:20:07.624Z,99638.41
2022-11-08T00:22:11.557Z,99665.31
2022-11-08T00:24:14.254Z,99675.31
2022-11-08T00:26:17.078Z,99674.25
2022-11-08T00:28:19.933Z,99672.34
2022-11-08T00:30:22.717Z,99668.84
2022-11-08T00:32:26.202Z,99668.84
2022-11-08T00:34:28.856Z,99667.75
2022-11-08T00:36:31.489Z,99673.50
2022-11-08T00:38:34.074Z,99667.81
2022-11-08T00:40:36.691Z,99672.13
2022-11-08T00:42:39.333Z,99670.22
2022-11-08T00:44:42.174Z,99672.13
2022-11-08T00:46:45.234Z,99673.16
2022-11-08T00:48:47.871Z,99670.16
2022-11-08T00:50:50.527Z,99667.94
2022-11-08T00:52:53.127Z,99663.94
2022-11-08T00:54:55.898Z,99662.88
2022-11-08T00:56:58.587Z,99664.25
2022-11-08T00:59:01.431Z,99661.53
2022-11-08T01:01:16.015Z,99660.72
2022-11-08T01:03:21.844Z,99663.19
2022-11-08T01:05:24.454Z,99666.72
2022-11-08T01:07:27.106Z,99673.72
2022-11-08T01:09:29.788Z,99672.13
2022-11-08T01:11:32.522Z,99669.91
2022-11-08T01:13:35.618Z,99670.16
2022-11-08T01:15:41.723Z,99670.41
2022-11-08T01:17:44.335Z,99665.56
2022-11-08T01:19:47.011Z,99673.16
2022-11-08T01:21:49.644Z,99677.75
2022-11-08T01:23:54.423Z,99674.81
2022-11-08T01:25:57.074Z,99666.13
2022-11-08T01:27:59.663Z,99670.66
2022-11-08T01:30:02.331Z,99680.41
2022-11-08T01:32:06.186Z,99679.09
2022-11-08T01:34:09.207Z,99670.97
2022-11-08T01:36:15.586Z,99680.97
2022-11-08T01:38:18.418Z,99677.19
2022-11-08T01:40:21.308Z,99673.44
2022-11-08T01:42:31.903Z,99676.44
2022-11-08T01:44:34.527Z,99678.34
2022-11-08T01:46:44.641Z,99674.53
2022-11-08T01:49:00.890Z,99681.59
2022-11-08T01:51:03.841Z,99678.09
2022-11-08T01:53:06.426Z,99671.31
2022-11-08T01:55:30.516Z,99674.25
2022-11-08T01:57:44.437Z,99679.16
2022-11-08T01:59:51.338Z,99684.03
2022-11-08T02:01:54.077Z,99675.94
2022-11-08T02:03:58.085Z,99681.91
2022-11-08T02:06:02.035Z,99680.22
2022-11-08T02:08:27.744Z,99684.81
2022-11-08T02:10:35.015Z,99682.94
2022-11-08T02:12:37.726Z,99682.34
2022-11-08T02:14:40.387Z,99681.03
2022-11-08T02:16:43.066Z,99675.88
2022-11-08T02:18:48.151Z,99679.47
2022-11-08T02:21:12.153Z,99681.09
2022-11-08T02:23:23.717Z,99687.81
2022-11-08T02:25:27.264Z,99688.91
2022-11-08T02:27:29.902Z,99677.00
2022-11-08T02:29:36.911Z,99678.34
2022-11-08T02:31:39.507Z,99677.53
2022-11-08T02:33:42.911Z,99687.00
2022-11-08T02:35:49.651Z,99686.75
2022-11-08T02:37:52.414Z,99682.41
2022-11-08T02:39:55.094Z,99683.75
2022-11-08T02:41:57.657Z,99682.66
2022-11-08T02:44:00.306Z,99687.31
2022-11-08T02:46:03.000Z,99682.97
2022-11-08T02:48:06.047Z,99683.56
2022-11-08T02:50:09.126Z,99678.09
2022-11-08T02:52:11.767Z,99679.28
2022-11-08T02:54:14.392Z,99685.44
2022-11-08T02:56:17.338Z,99689.72
2022-11-08T02:58:20.525Z,99671.34
2022-11-08T03:00:23.540Z,99684.38
2022-11-08T03:02:26.277Z,99673.03
2022-11-08T03:04:29.002Z,99674.13
2022-11-08T03:06:31.646Z,99678.72
2022-11-08T03:08:34.294Z,99678.44
2022-11-08T03:10:36.877Z,99673.88
2022-11-08T03:12:39.998Z,99671.97
2022-11-08T03:14:42.600Z,99674.41
2022-11-08T03:16:45.200Z,99678.00
2022-11-08T03:18:47.874Z,99665.06
2022-11-08T03:20:50.451Z,99669.88
2022-11-08T03:23:01.149Z,99668.56
2022-11-08T03:25:04.152Z,99676.13
2022-11-08T03:27:07.107Z,99674.22
2022-11-08T03:29:09.921Z,99668.56
2022-11-08T03:31:12.517Z,99665.06
2022-11-08T03:33:15.093Z,99677.25
2022-11-08T03:35:17.861Z,99679.16
2022-11-08T03:37:20.616Z,99670.69
2022-11-08T03:39:23.279Z,99682.13
2022-11-08T03:41:26.199Z,99671.31
2022-11-08T03:43:28.807Z,99680.00
2022-11-08T03:45:31.450Z,99666.47
2022-11-08T03:47:41.180Z,99670.75
2022-11-08T03:49:43.817Z,99672.94
2022-11-08T03:51:46.483Z,99665.91
2022-11-08T03:53:49.011Z,99671.31
2022-11-08T03:55:51.631Z,99665.91
2022-11-08T03:57:55.045Z,99665.66
2022-11-08T03:59:57.675Z,99667.03
2022-11-08T04:02:00.384Z,99661.63
2022-11-08T04:04:03.340Z,99664.06
2022-11-08T04:06:06.234Z,99663.25
2022-11-08T04:08:08.906Z,99658.66
2022-11-08T04:10:12.714Z,99660.53
2022-11-08T04:12:33.917Z,99655.13
2022-11-08T04:14:54.890Z,99668.66
2022-11-08T04:16:57.474Z,99664.59
2022-11-08T04:19:33.053Z,99662.44
2022-11-08T04:21:35.760Z,99670.31
2022-11-08T04:23:38.523Z,99665.19
2022-11-08T04:25:41.570Z,99667.38
2022-11-08T04:27:44.240Z,99666.09
2022-11-08T04:29:46.825Z,99662.84
2022-11-08T04:31:49.428Z,99666.13
2022-11-08T04:33:52.345Z,99656.34
2022-11-08T04:35:55.067Z,99663.41
2022-11-08T04:38:00.096Z,99665.59
2022-11-08T04:40:02.715Z,99658.06
2022-11-08T04:42:05.501Z,99662.13
2022-11-08T04:44:09.368Z,99660.75
2022-11-08T04:46:17.365Z,99658.63
2022-11-08T04:48:20.352Z,99660.75
2022-11-08T04:50:23.378Z,99656.97
2022-11-08T04:52:26.000Z,99658.09
2022-11-08T04:54:28.615Z,99658.91
2022-11-08T04:56:32.421Z,99656.19
2022-11-08T04:58:40.858Z,99661.13
2022-11-08T05:00:43.572Z,99669.53
2022-11-08T05:02:46.336Z,99662.78
2022-11-08T05:04:49.076Z,99667.38
2022-11-08T05:06:51.757Z,99648.69
2022-11-08T05:08:56.196Z,99654.41
2022-11-08T05:11:04.261Z,99666.56
2022-11-08T05:13:06.927Z,99671.72
2022-11-08T05:15:10.113Z,99660.88
2022-11-08T05:17:12.952Z,99657.13
2022-11-08T05:19:35.427Z,99663.59
2022-11-08T05:21:56.805Z,99662.78
2022-11-08T05:24:00.040Z,99662.28
2022-11-08T05:26:02.756Z,99660.63
2022-11-08T05:28:05.391Z,99668.22
2022-11-08T05:30:08.410Z,99673.97
2022-11-08T05:32:11.389Z,99669.88
2022-11-08T05:34:14.069Z,99672.34
2022-11-08T05:36:17.048Z,99664.75
2022-11-08T05:38:20.511Z,99662.59
2022-11-08T05:40:23.405Z,99666.97
2022-11-08T05:42:26.116Z,99660.47
2022-11-08T05:44:28.692Z,99667.25
2022-11-08T05:46:31.311Z,99666.19
2022-11-08T05:48:34.056Z,99665.34
2022-11-08T05:50:37.362Z,99666.69
2022-11-08T05:52:40.448Z,99667.81
2022-11-08T05:54:43.130Z,99661.88
2022-11-08T05:56:45.734Z,99668.41
2022-11-08T05:58:48.504Z,99668.13
2022-11-08T06:00:51.356Z,99667.56
2022-11-08T06:02:54.458Z,99675.47
2022-11-08T06:04:57.348Z,99673.88
2022-11-08T06:07:00.049Z,99685.25
2022-11-08T06:09:02.728Z,99672.28
2022-11-08T06:11:07.451Z,99670.69
2022-11-08T06:13:11.039Z,99664.75
2022-11-08T06:15:14.443Z,99667.69
2022-11-08T06:17:17.137Z,99664.75
2022-11-08T06:19:19.833Z,99668.81
2022-11-08T06:21:23.317Z,99669.34
2022-11-08T06:23:26.585Z,99665.63
2022-11-08T06:25:29.230Z,99664.00
2022-11-08T06:27:32.261Z,99661.28
2022-11-08T06:29:34.954Z,99658.31
2022-11-08T06:31:42.679Z,99666.50
2022-11-08T06:33:45.909Z,99666.25
2022-11-08T06:35:48.509Z,99674.16
2022-11-08T06:37:51.239Z,99662.78
2022-11-08T06:39:53.929Z,99664.69
2022-11-08T06:41:56.554Z,99666.84
2022-11-08T06:43:59.489Z,99663.59
2022-11-08T06:46:02.725Z,99667.13
2022-11-08T06:48:07.126Z,99670.16
2022-11-08T06:50:10.131Z,99669.59
2022-11-08T06:52:13.009Z,99670.72
2022-11-08T06:54:17.938Z,99665.06
2022-11-08T06:56:20.888Z,99671.03
2022-11-08T06:58:23.476Z,99671.84
2022-11-08T07:00:26.706Z,99656.63
2022-11-08T07:02:29.678Z,99666.41
2022-11-08T07:04:32.682Z,99661.47
2022-11-08T07:06:35.442Z,99664.19
2022-11-08T07:08:38.105Z,99670.97
2022-11-08T07:10:40.939Z,99666.41
2022-11-08T07:12:43.552Z,99670.19
2022-11-08T07:14:46.126Z,99674.00
2022-11-08T07:16:49.230Z,99668.59
2022-11-08T07:18:52.005Z,99677.53
2022-11-08T07:20:59.955Z,99677.25
2022-11-08T07:23:02.790Z,99676.47
2022-11-08T07:25:05.988Z,99677.25
2022-11-08T07:27:08.696Z,99669.63
2022-11-08T07:29:15.821Z,99675.88
2022-11-08T07:31:18.883Z,99677.75
2022-11-08T07:33:22.146Z,99679.38
2022-11-08T07:35:27.877Z,99674.53
2022-11-08T07:37:30.612Z,99689.94
2022-11-08T07:39:33.245Z,99680.78
2022-11-08T07:41:35.927Z,99678.09
2022-11-08T07:43:38.549Z,99682.16
2022-11-08T07:45:41.931Z,99682.19
2022-11-08T07:47:44.575Z,99686.56
2022-11-08T07:49:47.135Z,99689.25
2022-11-08T07:51:49.800Z,99697.16
2022-11-08T07:53:52.536Z,99687.94
2022-11-08T07:55:55.460Z,99681.72
2022-11-08T07:58:02.321Z,99685.53
2022-11-08T08:00:07.841Z,99683.91
2022-11-08T08:02:14.834Z,99678.78
2022-11-08T08:04:17.538Z,99683.41
2022-11-08T08:06:20.363Z,99682.59
2022-11-08T08:08:23.324Z,99678.25
2022-11-08T08:10:27.667Z,99684.53
2022-11-08T08:12:30.377Z,99684.22
2022-11-08T08:14:32.990Z,99683.16
2022-11-08T08:16:37.053Z,99685.03
2022-11-08T08:18:39.703Z,99677.19
2022-11-08T08:20:42.316Z,99675.03
2022-11-08T08:22:49.084Z,99673.38
2022-11-08T08:24:51.691Z,99679.13
2022-11-08T08:26:55.132Z,99685.66
2022-11-08T08:28:57.867Z,99675.03
2022-11-08T08:31:00.645Z,99674.78
2022-11-08T08:33:27.492Z,99669.94
2022-11-08T08:35:30.919Z,99665.03
2022-11-08T08:37:33.603Z,99667.47
2022-11-08T08:39:36.309Z,99663.16
2022-11-08T08:41:38.972Z,99666.13
2022-11-08T08:43:41.830Z,99665.34
2022-11-08T08:45:44.793Z,99665.06
2022-11-08T08:47:55.783Z,99658.84
2022-11-08T08:49:59.172Z,99654.50
2022-11-08T08:52:02.328Z,99656.13
2022-11-08T08:54:06.277Z,99661.84
2022-11-08T08:56:09.630Z,99641.75
2022-11-08T08:58:12.484Z,99646.38
2022-11-08T09:02:41.497Z,99651.00
2022-11-08T09:04:45.990Z,99647.19
2022-11-08T09:06:49.480Z,99653.16
2022-11-08T09:08:52.858Z,99645.81
2022-11-08T09:10:58.247Z,99658.03
2022-11-08T09:13:02.576Z,99651.00
2022-11-08T09:15:07.238Z,99646.38
2022-11-08T09:17:10.454Z,99641.19
2022-11-08T09:19:13.614Z,99646.38
2022-11-08T09:21:16.778Z,99642.31
2022-11-08T09:23:20.247Z,99640.69
2022-11-08T09:25:23.196Z,99637.41
2022-11-08T09:27:28.542Z,99640.69
2022-11-08T09:29:32.178Z,99636.31
2022-11-08T09:31:35.009Z,99617.56
2022-11-08T09:33:39.693Z,99632.00
2022-11-08T09:35:48.714Z,99626.56
2022-11-08T09:37:54.115Z,99622.50
2022-11-08T09:39:56.817Z,99621.38
2022-11-08T09:42:15.425Z,99632.00
2022-11-08T09:44:40.683Z,99642.84
2022-11-08T09:46:52.869Z,99638.53
2022-11-08T09:48:58.898Z,99625.75
2022-11-08T09:51:09.799Z,99625.22
2022-11-08T09:53:24.404Z,99626.28
2022-11-08T09:55:50.291Z,99629.81
2022-11-08T09:57:58.929Z,99624.41
2022-11-08T10:00:06.721Z,99625.47
2022-11-08T10:02:18.212Z,99617.88
2022-11-08T10:04:26.383Z,99612.72
2022-11-08T10:07:02.173Z,99617.59
2022-11-08T10:09:31.826Z,99608.09
2022-11-08T10:12:09.902Z,99605.94
2022-11-08T10:14:19.810Z,99610.00
2022-11-08T10:16:28.170Z,99599.41
2022-11-08T10:19:02.587Z,99601.03
2022-11-08T10:21:23.514Z,99596.41
2022-11-08T10:23:40.364Z,99598.88
2022-11-08T10:25:53.906Z,99594.25
2022-11-08T10:28:00.291Z,99602.13
2022-11-08T10:30:07.629Z,99591.81
2022-11-08T10:32:21.681Z,99598.59
2022-11-08T10:34:28.406Z,99597.22
2022-11-08T10:36:58.395Z,99604.03
2022-11-08T10:39:09.721Z,99594.50
2022-11-08T10:41:26.538Z,99600.50
2022-11-08T10:43:41.716Z,99599.66
2022-11-08T10:45:44.347Z,99596.16
2022-11-08T10:47:47.597Z,99600.78
2022-11-08T10:49:50.977Z,99599.13
2022-11-08T10:51:56.409Z,99600.47
2022-11-08T10:53:59.131Z,99608.06
2022-11-08T10:56:04.431Z,99595.34
2022-11-08T10:58:30.096Z,99596.16
2022-11-08T11:00:33.735Z,99592.06
2022-11-08T11:02:37.100Z,99585.03
2022-11-08T11:04:39.879Z,99598.06
2022-11-08T11:06:42.562Z,99586.66
2022-11-08T11:08:55.672Z,99584.22
2022-11-08T11:11:22.904Z,99579.59
2022-11-08T11:13:29.501Z,99577.16
2022-11-08T11:15:56.205Z,99570.63
2022-11-08T11:17:58.883Z,99570.63
2022-11-08T11:20:01.944Z,99562.75
2022-11-08T11:22:08.221Z,99565.47
2022-11-08T11:24:19.361Z,99561.13
2022-11-08T11:27:01.060Z,99553.25
2022-11-08T11:29:06.763Z,99549.44
2022-11-08T11:31:17.206Z,99546.19
2022-11-08T11:33:26.176Z,99554.88
2022-11-08T11:35:44.340Z,99549.44
2022-11-08T11:37:48.800Z,99555.97
2022-11-08T11:40:00.339Z,99582.03
2022-11-08T11:42:39.325Z,99585.28
2022-11-08T11:44:59.015Z,99578.22
2022-11-08T11:47:14.871Z,99579.06
2022-11-08T11:49:21.142Z,99576.59
2022-11-08T11:51:28.784Z,99574.69
2022-11-08T11:53:33.427Z,99560.56
2022-11-08T11:55:47.181Z,99588.53
2022-11-08T11:58:15.188Z,99579.03
2022-11-08T12:00:18.328Z,99579.84
2022-11-08T12:02:29.897Z,99582.03
2022-11-08T12:05:06.763Z,99590.16
2022-11-08T12:07:15.023Z,99574.41
2022-11-08T12:09:45.785Z,99576.56
2022-11-08T12:12:29.958Z,99577.97
2022-11-08T12:14:55.772Z,99564.38
2022-11-08T12:17:43.009Z,99575.50
2022-11-08T12:19:48.295Z,99569.28
2022-11-08T12:22:04.118Z,99572.53
2022-11-08T12:24:19.626Z,99558.97
2022-11-08T12:26:50.449Z,99562.47
2022-11-08T12:29:26.404Z,99568.44
2022-11-08T12:31:50.656Z,99552.69
2022-11-08T12:34:03.757Z,99554.59
2022-11-08T12:36:27.005Z,99549.97
2022-11-08T12:38:47.477Z,99546.72
2022-11-08T12:41:05.040Z,99548.63
2022-11-08T12:43:35.141Z,99549.19
2022-11-08T12:45:55.708Z,99544.00
2022-11-08T12:47:58.481Z,99541.28
2022-11-08T12:50:24.067Z,99530.69
2022-11-08T12:52:42.828Z,99545.34
2022-11-08T12:54:53.919Z,99530.44
2022-11-08T12:57:02.766Z,99541.53
2022-11-08T12:59:18.673Z,99539.09
2022-11-08T13:01:23.267Z,99536.66
2022-11-08T13:03:51.246Z,99555.66
2022-11-08T13:06:15.317Z,99535.81
2022-11-08T13:08:31.760Z,99536.94
2022-11-08T13:10:48.720Z,99543.16
2022-11-08T13:13:23.892Z,99546.97
2022-11-08T13:15:28.354Z,99544.81
2022-11-08T13:17:31.761Z,99549.69
2022-11-08T13:19:49.895Z,99535.31
2022-11-08T13:21:52.629Z,99536.41
2022-11-08T13:24:42.742Z,99529.34
2022-11-08T13:26:42.196Z,99533.66
2022-11-08T13:28:46.056Z,99542.09
2022-11-08T13:31:00.512Z,99541.84
2022-11-08T13:33:29.303Z,99536.13
2022-11-08T13:35:36.913Z,99534.22
2022-11-08T13:37:53.774Z,99537.78
2022-11-08T13:40:21.193Z,99532.06
2022-11-08T13:42:23.706Z,99528.81
2022-11-08T13:44:59.860Z,99528.53
2022-11-08T13:47:02.586Z,99527.72
2022-11-08T13:49:15.708Z,99517.94
2022-11-08T13:51:34.646Z,99516.88
2022-11-08T13:53:51.614Z,99525.28
2022-11-08T13:56:06.940Z,99533.16
2022-11-08T13:58:42.789Z,99526.63
2022-11-08T14:00:47.285Z,99522.56
2022-11-08T14:02:49.993Z,99524.47
2022-11-08T14:04:54.724Z,99515.25
2022-11-08T14:07:25.815Z,99518.22
2022-11-08T14:09:47.211Z,99525.00
2022-11-08T14:12:16.308Z,99523.38
2022-11-08T14:14:36.415Z,99512.78
2022-11-08T14:16:59.517Z,99504.41
2022-11-08T14:19:37.886Z,99487.56
2022-11-08T14:21:48.172Z,99489.19
2022-11-08T14:23:51.430Z,99491.38
2022-11-08T14:26:00.924Z,99486.75
2022-11-08T14:28:04.864Z,99494.63
2022-11-08T14:30:19.435Z,99498.97
2022-11-08T14:32:22.101Z,99509.00
2022-11-08T14:34:36.574Z,99495.16
2022-11-08T14:36:45.195Z,99500.06
2022-11-08T14:39:03.416Z,99498.13
2022-11-08T14:41:07.542Z,99499.50
2022-11-08T14:43:12.351Z,99497.63
2022-11-08T14:45:20.708Z,99494.06
2022-11-08T14:47:31.805Z,99494.06
2022-11-08T14:49:36.772Z,99504.94
2022-11-08T14:51:40.574Z,99499.50
2022-11-08T14:53:49.255Z,99493.25
2022-11-08T14:56:18.538Z,99488.38
2022-11-08T14:58:21.362Z,99494.91
2022-11-08T15:00:29.353Z,99487.56
2022-11-08T15:02:33.280Z,99478.06
2022-11-08T15:04:40.738Z,99479.97
2022-11-08T15:06:56.643Z,99474.53
2022-11-08T15:08:59.511Z,99482.69
2022-11-08T15:11:08.076Z,99484.28
2022-11-08T15:13:11.787Z,99488.91
2022-11-08T15:15:30.594Z,99479.13
2022-11-08T15:17:37.328Z,99483.50
2022-11-08T15:19:43.203Z,99484.56
2022-11-08T15:21:51.890Z,99481.03
2022-11-08T15:24:11.504Z,99484.84
2022-11-08T15:26:27.445Z,99488.09
2022-11-08T15:28:34.455Z,99482.38
2022-11-08T15:30:39.451Z,99484.03
2022-11-08T15:32:42.571Z,99472.63
2022-11-08T15:34:48.694Z,99477.25
2022-11-08T15:36:52.275Z,99468.56
2022-11-08T15:38:55.052Z,99471.00
2022-11-08T15:41:00.955Z,99473.16
2022-11-08T15:43:04.245Z,99472.63
2022-11-08T15:45:29.142Z,99479.94
2022-11-08T15:47:43.491Z,99472.91
2022-11-08T15:49:46.077Z,99472.91
2022-11-08T15:51:50.544Z,99477.22
2022-11-08T15:53:53.223Z,99471.53
2022-11-08T15:56:04.958Z,99462.03
2022-11-08T15:58:23.016Z,99463.38
2022-11-08T16:00:28.816Z,99458.75
2022-11-08T16:02:31.453Z,99453.88
2022-11-08T16:04:34.035Z,99457.66
2022-11-08T16:06:36.653Z,99452.50
2022-11-08T16:08:40.366Z,99458.19
2022-11-08T16:10:46.626Z,99458.47
2022-11-08T16:12:49.231Z,99451.38
2022-11-08T16:14:52.221Z,99454.38
2022-11-08T16:16:54.907Z,99457.91
2022-11-08T16:18:57.505Z,99448.94
2022-11-08T16:21:00.400Z,99453.56
2022-11-08T16:23:08.721Z,99456.84
2022-11-08T16:25:11.392Z,99450.31
2022-11-08T16:27:15.527Z,99452.75
2022-11-08T16:29:24.069Z,99443.78
2022-11-08T16:31:26.609Z,99451.94
2022-11-08T16:33:31.278Z,99446.22
2022-11-08T16:35:34.058Z,99438.38
2022-11-08T16:37:37.995Z,99439.47
2022-11-08T16:39:40.532Z,99437.03
2022-11-08T16:41:43.368Z,99437.59
2022-11-08T16:43:46.253Z,99425.38
2022-11-08T16:46:04.884Z,99429.72
2022-11-08T16:48:18.479Z,99431.88
2022-11-08T16:50:26.437Z,99427.56
2022-11-08T16:52:29.091Z,99427.00
2022-11-08T16:54:31.677Z,99422.38
2022-11-08T16:56:34.323Z,99410.44
2022-11-08T16:58:37.045Z,99407.72
2022-11-08T17:00:41.898Z,99405.53
2022-11-08T17:02:48.273Z,99403.91
2022-11-08T17:04:50.904Z,99392.53
2022-11-08T17:06:53.632Z,99403.13
2022-11-08T17:08:56.378Z,99407.47
2022-11-08T17:10:58.970Z,99398.75
2022-11-08T17:13:01.913Z,99408.25
2022-11-08T17:15:04.873Z,99395.25
2022-11-08T17:17:07.611Z,99395.25
2022-11-08T17:19:10.329Z,99390.91
2022-11-08T17:21:43.069Z,99391.72
2022-11-08T17:23:37.633Z,99394.44
2022-11-08T17:25:43.132Z,99398.50
2022-11-08T17:27:46.469Z,99399.88
2022-11-08T17:29:49.108Z,99406.94
2022-11-08T17:31:51.690Z,99418.56
2022-11-08T17:33:55.828Z,99407.19
2022-11-08T17:36:07.440Z,99401.47
2022-11-08T17:38:10.251Z,99402.59
2022-11-08T17:40:12.887Z,99401.25
2022-11-08T17:42:15.617Z,99408.28
2022-11-08T17:44:18.189Z,99404.75
2022-11-08T17:46:20.802Z,99397.69
2022-11-08T17:48:23.512Z,99400.94
2022-11-08T17:50:26.115Z,99385.50
2022-11-08T17:52:28.754Z,99382.22
2022-11-08T17:54:31.378Z,99388.72
2022-11-08T17:56:34.067Z,99389.25
2022-11-08T17:58:38.105Z,99395.22
2022-11-08T18:00:40.862Z,99397.94
2022-11-08T18:02:43.581Z,99388.41
2022-11-08T18:04:46.305Z,99382.97
2022-11-08T18:06:48.974Z,99388.63
2022-11-08T18:08:51.745Z,99384.56
2022-11-08T18:10:55.435Z,99374.53
2022-11-08T18:12:57.994Z,99377.22
2022-11-08T18:15:00.591Z,99376.41
2022-11-08T18:17:05.288Z,99375.59
2022-11-08T18:19:07.990Z,99364.47
2022-11-08T18:21:11.971Z,99367.97
2022-11-08T18:23:14.746Z,99369.91
2022-11-08T18:25:17.398Z,99358.75
2022-11-08T18:27:20.095Z,99366.63
2022-11-08T18:29:22.678Z,99361.44
2022-11-08T18:31:26.493Z,99362.59
2022-11-08T18:33:29.536Z,99369.59
2022-11-08T18:35:32.248Z,99371.47
2022-11-08T18:37:34.934Z,99370.94
2022-11-08T18:39:37.579Z,99367.66
2022-11-08T18:41:40.204Z,99367.38
2022-11-08T18:43:42.867Z,99363.03
2022-11-08T18:45:45.500Z,99370.38
2022-11-08T18:47:48.401Z,99367.38
2022-11-08T18:49:51.002Z,99372.81
2022-11-08T18:51:53.889Z,99366.00
2022-11-08T18:53:56.688Z,99371.16
2022-11-08T18:55:59.426Z,99380.13
2022-11-08T18:58:02.835Z,99374.41
2022-11-08T19:00:06.390Z,99370.63
2022-11-08T19:02:11.702Z,99370.63
2022-11-08T19:04:14.450Z,99370.63
2022-11-08T19:06:17.020Z,99368.44
2022-11-08T19:08:25.282Z,99372.19
2022-11-08T19:10:27.987Z,99363.22
2022-11-08T19:12:30.613Z,99365.69
2022-11-08T19:14:35.509Z,99371.66
2022-11-08T19:16:38.356Z,99375.19
2022-11-08T19:18:42.488Z,99379.81
2022-11-08T19:20:45.111Z,99385.78
2022-11-08T19:22:47.701Z,99382.75
2022-11-08T19:24:50.456Z,99383.88
2022-11-08T19:26:53.202Z,99383.06
2022-11-08T19:28:57.420Z,99391.72
2022-11-08T19:31:01.470Z,99378.13
2022-11-08T19:33:04.266Z,99380.84
2022-11-08T19:35:07.447Z,99375.09
2022-11-08T19:37:10.078Z,99372.44
2022-11-08T19:39:13.304Z,99376.47
2022-11-08T19:41:19.049Z,99378.38
2022-11-08T19:43:21.885Z,99387.09
2022-11-08T19:45:25.442Z,99375.41
2022-11-08T19:47:28.258Z,99385.72
2022-11-08T19:49:31.087Z,99383.00
2022-11-08T19:51:34.907Z,99385.94
2022-11-08T19:53:37.625Z,99387.84
2022-11-08T19:55:40.300Z,99386.25
2022-11-08T19:57:43.020Z,99393.88
2022-11-08T19:59:46.184Z,99398.72
2022-11-08T20:01:48.910Z,99400.91
2022-11-08T20:03:51.764Z,99403.63
2022-11-08T20:05:55.500Z,99397.13
2022-11-08T20:07:58.372Z,99400.91
2022-11-08T20:10:01.081Z,99397.13
2022-11-08T20:12:05.832Z,99398.50
2022-11-08T20:14:10.980Z,99393.59
2022-11-08T20:16:16.610Z,99395.50
2022-11-08T20:18:20.598Z,99392.25
2022-11-08T20:20:23.462Z,99393.94
2022-11-08T20:22:26.690Z,99387.41
2022-11-08T20:24:29.340Z,99391.22
2022-11-08T20:26:32.074Z,99379.31
2022-11-08T20:28:36.353Z,99383.66
2022-11-08T20:30:44.134Z,99379.31
2022-11-08T20:32:46.742Z,99382.59
2022-11-08T20:34:50.744Z,99385.03
2022-11-08T20:36:53.520Z,99385.03
2022-11-08T20:38:59.068Z,99383.38
2022-11-08T20:41:07.168Z,99386.41
2022-11-08T20:43:09.828Z,99389.94
2022-11-08T20:45:15.112Z,99392.66
2022-11-08T20:47:19.119Z,99386.69
2022-11-08T20:49:21.783Z,99384.22
2022-11-08T20:51:24.464Z,99383.13
2022-11-08T20:53:28.217Z,99393.44
2022-11-08T20:55:31.001Z,99379.31
2022-11-08T20:57:33.629Z,99382.56
2022-11-08T20:59:36.401Z,99375.50
2022-11-08T21:01:39.584Z,99380.94
2022-11-08T21:03:43.066Z,99379.59
2022-11-08T21:05:56.946Z,99382.00
2022-11-08T21:08:56.135Z,99376.59
2022-11-08T21:12:44.871Z,99377.97
2022-11-08T21:14:47.506Z,99372.00
2022-11-08T21:19:13.725Z,99383.09
2022-11-08T21:21:19.394Z,99381.47
2022-11-08T21:23:22.652Z,99379.84
2022-11-08T21:25:25.286Z,99383.94
2022-11-08T21:27:29.975Z,99391.28
2022-11-08T21:29:32.820Z,99382.88
2022-11-08T21:31:35.645Z,99378.53
2022-11-08T21:33:39.081Z,99372.84
2022-11-08T21:35:41.768Z,99376.06
2022-11-08T21:37:44.480Z,99380.47
2022-11-08T21:39:47.152Z,99373.38
2022-11-08T21:41:49.897Z,99373.94
2022-11-08T21:43:52.601Z,99378.56
2022-11-08T21:45:55.271Z,99377.22
2022-11-08T21:47:57.870Z,99368.75
2022-11-08T21:50:00.587Z,99375.03
2022-11-08T21:52:03.872Z,99368.50
2022-11-08T21:54:06.747Z,99373.94
2022-11-08T21:56:09.432Z,99371.47
2022-11-08T21:58:12.051Z,99369.88
2022-11-08T22:00:15.170Z,99368.78
2022-11-08T22:02:18.581Z,99363.66
2022-11-08T22:04:21.225Z,99363.66
2022-11-08T22:06:24.226Z,99366.91
2022-11-08T22:08:27.082Z,99371.25
2022-11-08T22:10:29.709Z,99366.38
2022-11-08T22:12:32.820Z,99367.75
2022-11-08T22:14:35.525Z,99364.47
2022-11-08T22:16:38.148Z,99366.69
2022-11-08T22:21:21.763Z,99357.72
2022-11-08T22:23:24.423Z,99368.59
2022-11-08T22:25:27.096Z,99375.41
2022-11-08T22:27:29.773Z,99364.81
2022-11-08T22:29:32.524Z,99370.81
2022-11-08T22:31:35.482Z,99365.66
2022-11-08T22:33:38.114Z,99370.28
2022-11-08T22:35:40.793Z,99368.13
2022-11-08T22:37:43.469Z,99365.13
2022-11-08T22:39:46.106Z,99365.66
2022-11-08T22:41:51.069Z,99363.25
2022-11-08T22:43:53.986Z,99366.22
2022-11-08T22:45:56.638Z,99357.53
2022-11-08T22:47:59.362Z,99362.69
2022-11-08T22:50:02.099Z,99361.09
2022-11-08T22:52:06.207Z,99369.78
2022-11-08T22:54:09.748Z,99360.81
2022-11-08T22:56:12.367Z,99359.97
2022-11-08T22:58:15.138Z,99359.75
2022-11-08T23:00:17.910Z,99350.78
2022-11-08T23:02:20.538Z,99341.28
2022-11-08T23:04:23.190Z,99359.47
2022-11-08T23:06:26.074Z,99349.69
2022-11-08T23:08:30.128Z,99363.81
2022-11-08T23:10:32.877Z,99363.28
2022-11-08T23:12:53.894Z,99356.50
2022-11-08T23:15:14.905Z,99357.88
2022-11-08T23:17:17.614Z,99342.13
2022-11-08T23:19:41.949Z,99352.97
2022-11-08T23:22:02.981Z,99346.47
2022-11-08T23:24:21.580Z,99342.94
2022-11-08T23:26:44.108Z,99343.50
2022-11-08T23:29:05.358Z,99342.38
2022-11-08T23:31:31.513Z,99339.94
2022-11-08T23:33:34.213Z,99342.13
2022-11-08T23:35:36.864Z,99344.81
2022-11-08T23:37:40.330Z,99335.06
2022-11-08T23:40:01.469Z,99348.09
2022-11-08T23:42:24.600Z,99340.78
2022-11-08T23:44:28.016Z,99337.53
2022-11-08T23:46:30.684Z,99332.63
2022-11-08T23:48:33.579Z,99334.50
2022-11-08T23:50:36.190Z,99338.34
2022-11-08T23:52:38.874Z,99348.38
2022-11-08T23:54:41.612Z,99333.97
2022-11-08T23:56:44.929Z,99336.16
2022-11-08T23:58:47.627Z,99339.94
